createdAt,value
2018-11-06T00:01:09.396Z,0
2018-11-06T00:02:23.450Z,0
2018-11-06T00:03:37.255Z,0
2018-11-06T00:04:51.031Z,0
2018-11-06T00:06:04.817Z,0
2018-11-06T00:07:19.086Z,0
2018-11-06T00:08:33.374Z,0
2018-11-06T00:09:46.935Z,0
2018-11-06T00:11:00.718Z,0
2018-11-06T00:12:29.440Z,0
2018-11-06T00:13:43.726Z,0
2018-11-06T00:14:57.683Z,0
2018-11-06T00:16:11.496Z,0
2018-11-06T00:17:25.531Z,0
2018-11-06T00:18:39.774Z,0
2018-11-06T00:19:53.670Z,0
2018-11-06T00:21:07.991Z,0
2018-11-06T00:22:21.549Z,0
2018-11-06T00:23:35.550Z,0
2018-11-06T00:24:49.804Z,0
2018-11-06T00:26:04.157Z,0
2018-11-06T00:27:18.195Z,0
2018-11-06T00:28:32.488Z,0
2018-11-06T00:29:46.272Z,0
2018-11-06T00:31:00.101Z,0
2018-11-06T00:32:14.003Z,0
2018-11-06T00:33:27.824Z,0
2018-11-06T00:34:42.321Z,0
2018-11-06T00:35:56.120Z,0
2018-11-06T00:37:09.948Z,0
2018-11-06T00:38:24.035Z,0
2018-11-06T00:39:38.056Z,0
2018-11-06T00:40:51.382Z,0
2018-11-06T00:42:05.170Z,0
2018-11-06T00:43:19.443Z,0
2018-11-06T00:44:33.980Z,0
2018-11-06T00:45:48.003Z,0
2018-11-06T00:47:02.028Z,0
2018-11-06T00:48:16.518Z,0
2018-11-06T00:49:30.546Z,0
2018-11-06T00:50:44.579Z,0
2018-11-06T00:51:58.811Z,0
2018-11-06T00:53:12.386Z,0
2018-11-06T00:54:26.391Z,0
2018-11-06T00:55:40.300Z,0
2018-11-06T00:56:54.153Z,0
2018-11-06T00:58:08.226Z,0
2018-11-06T00:59:22.223Z,0
2018-11-06T01:00:50.486Z,0
2018-11-06T01:02:04.268Z,0
2018-11-06T01:03:18.310Z,0
2018-11-06T01:04:32.633Z,0
2018-11-06T01:05:46.661Z,0
2018-11-06T01:07:00.213Z,0
2018-11-06T01:08:14.023Z,0
2018-11-06T01:09:28.856Z,0
2018-11-06T01:22:04.706Z,0
2018-11-06T01:23:19.005Z,0
2018-11-06T01:24:33.041Z,0
2018-11-06T01:25:47.390Z,0
2018-11-06T01:27:00.976Z,0
2018-11-06T01:28:14.594Z,0
2018-11-06T01:29:28.172Z,0
2018-11-06T01:30:42.208Z,0
2018-11-06T01:31:56.021Z,0
2018-11-06T01:33:10.016Z,0
2018-11-06T01:34:24.764Z,0
2018-11-06T01:35:38.537Z,0
2018-11-06T01:36:51.904Z,0
2018-11-06T01:38:05.715Z,0
2018-11-06T01:39:19.993Z,0
2018-11-06T01:40:34.291Z,0
2018-11-06T01:41:48.822Z,0
2018-11-06T01:43:03.060Z,0
2018-11-06T01:44:16.852Z,0
2018-11-06T01:45:31.169Z,0
2018-11-06T01:46:45.492Z,0
2018-11-06T01:47:59.289Z,0
2018-11-06T01:49:13.331Z,0
2018-11-06T01:50:27.588Z,0
2018-11-06T01:51:41.394Z,0
2018-11-06T01:52:55.446Z,0
2018-11-06T01:54:09.313Z,0
2018-11-06T01:55:23.319Z,0
2018-11-06T01:56:52.002Z,0
2018-11-06T01:58:06.054Z,0
2018-11-06T01:59:19.888Z,0
2018-11-06T02:00:34.194Z,0
2018-11-06T02:01:47.764Z,0
2018-11-06T02:03:04.595Z,0
2018-11-06T02:04:18.634Z,0
2018-11-06T02:05:32.970Z,0
2018-11-06T02:06:46.997Z,0
2018-11-06T02:08:01.524Z,0
2018-11-06T02:09:15.561Z,0
2018-11-06T02:10:30.152Z,0
2018-11-06T02:11:44.496Z,0
2018-11-06T02:13:02.351Z,0
2018-11-06T02:14:16.595Z,0
2018-11-06T02:15:30.387Z,0
2018-11-06T02:16:44.869Z,0
2018-11-06T02:17:58.901Z,0
2018-11-06T02:19:13.172Z,0
2018-11-06T02:20:27.364Z,0
2018-11-06T02:21:41.466Z,0
2018-11-06T02:22:55.747Z,0
2018-11-06T02:24:10.305Z,0
2018-11-06T02:25:24.078Z,0
2018-11-06T02:26:38.224Z,0
2018-11-06T02:27:52.689Z,0
2018-11-06T02:29:06.740Z,0
2018-11-06T02:30:20.591Z,0
2018-11-06T02:31:34.382Z,0
2018-11-06T02:32:48.138Z,0
2018-11-06T02:34:02.450Z,0
2018-11-06T02:35:16.764Z,0
2018-11-06T02:36:31.492Z,0
2018-11-06T02:37:45.999Z,0
2018-11-06T02:39:00.255Z,0
2018-11-06T02:40:14.552Z,0
2018-11-06T02:41:28.815Z,0
2018-11-06T02:42:42.145Z,0
2018-11-06T02:43:56.452Z,0
2018-11-06T02:45:10.518Z,0
2018-11-06T02:46:24.763Z,0
2018-11-06T02:47:38.577Z,0
2018-11-06T02:48:53.208Z,0
2018-11-06T02:50:06.990Z,0
2018-11-06T02:51:20.118Z,0
2018-11-06T02:52:34.688Z,0
2018-11-06T02:53:48.718Z,0
2018-11-06T02:55:03.256Z,0
2018-11-06T02:56:17.527Z,0
2018-11-06T02:57:31.828Z,0
2018-11-06T02:58:46.320Z,0
2018-11-06T03:00:00.229Z,0
2018-11-06T03:01:14.523Z,0
2018-11-06T03:02:32.800Z,0
2018-11-06T03:03:46.610Z,0
2018-11-06T03:05:00.611Z,0
2018-11-06T03:06:14.879Z,0
2018-11-06T03:07:28.439Z,0
2018-11-06T03:08:42.682Z,0
2018-11-06T03:09:56.503Z,0
2018-11-06T03:11:10.575Z,0
2018-11-06T03:12:24.589Z,0
2018-11-06T03:13:38.394Z,0
2018-11-06T03:14:52.882Z,0
2018-11-06T03:16:07.166Z,0
2018-11-06T03:17:20.971Z,0
2018-11-06T03:18:35.024Z,0
2018-11-06T03:19:49.533Z,0
2018-11-06T03:21:03.864Z,0
2018-11-06T03:22:17.664Z,0
2018-11-06T03:23:31.687Z,0
2018-11-06T03:24:45.717Z,0
2018-11-06T03:26:00.274Z,0
2018-11-06T03:27:15.755Z,0
2018-11-06T03:28:30.034Z,0
2018-11-06T03:29:44.312Z,0
2018-11-06T03:30:58.196Z,0
2018-11-06T03:32:12.076Z,0
2018-11-06T03:33:26.270Z,0
2018-11-06T03:34:40.074Z,0
2018-11-06T03:35:53.648Z,0
2018-11-06T03:37:07.913Z,0
2018-11-06T03:38:36.910Z,0
2018-11-06T03:39:50.737Z,0
2018-11-06T03:41:05.006Z,0
2018-11-06T03:42:19.050Z,0
2018-11-06T03:43:32.863Z,0
2018-11-06T03:44:46.666Z,0
2018-11-06T03:46:00.910Z,0
2018-11-06T03:47:14.942Z,0
2018-11-06T03:48:29.193Z,0
2018-11-06T03:49:42.739Z,0
2018-11-06T03:50:56.636Z,0
2018-11-06T03:52:10.446Z,0
2018-11-06T03:53:24.250Z,0
2018-11-06T03:54:37.825Z,0
2018-11-06T03:55:51.499Z,0
2018-11-06T03:57:06.032Z,0
2018-11-06T03:58:19.861Z,0
2018-11-06T03:59:34.113Z,0
2018-11-06T04:00:48.372Z,0
2018-11-06T04:02:02.644Z,0
2018-11-06T04:03:17.413Z,0
2018-11-06T04:04:31.013Z,0
2018-11-06T04:05:45.163Z,0
2018-11-06T04:06:59.644Z,0
2018-11-06T04:08:13.484Z,0
2018-11-06T04:09:42.665Z,0
2018-11-06T04:10:56.698Z,0
2018-11-06T04:12:10.719Z,0
2018-11-06T04:13:24.624Z,0
2018-11-06T04:14:38.426Z,0
2018-11-06T04:15:52.918Z,0
2018-11-06T04:17:06.936Z,0
2018-11-06T04:18:21.002Z,0
2018-11-06T04:19:35.023Z,0
2018-11-06T04:20:48.806Z,0
2018-11-06T04:22:03.106Z,0
2018-11-06T04:23:17.290Z,0
2018-11-06T04:24:31.617Z,0
2018-11-06T04:25:45.476Z,0
2018-11-06T04:26:59.776Z,0
2018-11-06T04:28:14.147Z,0
2018-11-06T04:29:28.036Z,0
2018-11-06T04:30:42.050Z,0
2018-11-06T04:31:55.893Z,0
2018-11-06T04:33:10.137Z,0
2018-11-06T04:34:24.038Z,0
2018-11-06T04:35:37.867Z,0
2018-11-06T04:36:52.155Z,0
2018-11-06T04:38:06.095Z,0
2018-11-06T04:39:20.139Z,0
2018-11-06T04:40:34.682Z,0
2018-11-06T04:41:48.496Z,0
2018-11-06T04:43:03.064Z,0
2018-11-06T04:44:17.317Z,0
2018-11-06T04:45:31.125Z,0
2018-11-06T04:46:45.940Z,0
2018-11-06T04:47:59.867Z,0
2018-11-06T04:49:13.754Z,0
2018-11-06T04:50:29.355Z,0
2018-11-06T04:51:43.983Z,0
2018-11-06T04:52:58.594Z,0
2018-11-06T04:54:13.117Z,0
2018-11-06T04:55:26.439Z,0
2018-11-06T04:56:39.984Z,0
2018-11-06T04:57:54.053Z,0
2018-11-06T04:59:08.569Z,0
2018-11-06T05:00:22.372Z,0
2018-11-06T05:01:36.399Z,0
2018-11-06T05:02:50.736Z,0
2018-11-06T05:04:05.008Z,0
2018-11-06T05:05:19.437Z,0
2018-11-06T05:06:34.013Z,0
2018-11-06T05:07:47.971Z,0
2018-11-06T05:09:01.785Z,0
2018-11-06T05:10:15.362Z,0
2018-11-06T05:11:29.976Z,0
2018-11-06T05:12:43.560Z,0
2018-11-06T05:13:58.376Z,0
2018-11-06T05:15:12.166Z,0
2018-11-06T05:16:26.452Z,0
2018-11-06T05:17:40.701Z,0
2018-11-06T05:18:54.742Z,0
2018-11-06T05:20:09.033Z,0
2018-11-06T05:21:22.838Z,0
2018-11-06T05:22:37.119Z,0
2018-11-06T05:23:51.479Z,0
2018-11-06T05:25:05.298Z,0
2018-11-06T05:26:19.087Z,0
2018-11-06T05:27:33.792Z,0
2018-11-06T05:28:48.390Z,0
2018-11-06T05:30:02.419Z,0
2018-11-06T05:31:16.196Z,0
2018-11-06T05:32:30.246Z,0
2018-11-06T05:33:44.317Z,0
2018-11-06T05:34:58.981Z,0
2018-11-06T05:36:13.356Z,0
2018-11-06T05:37:27.151Z,0
2018-11-06T05:38:41.167Z,0
2018-11-06T05:39:54.957Z,0
2018-11-06T05:41:08.992Z,0
2018-11-06T05:42:22.761Z,0
2018-11-06T05:43:36.544Z,0
2018-11-06T05:44:50.462Z,0
2018-11-06T05:46:04.730Z,0
2018-11-06T05:47:19.232Z,0
2018-11-06T05:48:33.306Z,0
2018-11-06T05:49:47.580Z,0
2018-11-06T05:51:05.637Z,0
2018-11-06T05:52:19.237Z,0
2018-11-06T05:53:33.420Z,0
2018-11-06T05:54:48.171Z,0
2018-11-06T05:56:02.469Z,0
2018-11-06T05:57:16.761Z,0
2018-11-06T05:58:30.560Z,0
2018-11-06T05:59:45.050Z,0
2018-11-06T06:00:59.590Z,0
2018-11-06T06:02:13.173Z,0
2018-11-06T06:03:26.772Z,0
2018-11-06T06:04:40.621Z,0
2018-11-06T06:05:54.784Z,0
2018-11-06T06:07:08.405Z,0
2018-11-06T06:08:22.228Z,0
2018-11-06T06:09:36.107Z,0
2018-11-06T06:10:51.665Z,0
2018-11-06T06:12:06.279Z,0
2018-11-06T06:13:20.344Z,0
2018-11-06T06:14:34.399Z,0
2018-11-06T06:15:48.418Z,0
2018-11-06T06:17:17.216Z,0
2018-11-06T06:18:32.054Z,0
2018-11-06T06:19:45.652Z,0
2018-11-06T06:20:59.910Z,0
2018-11-06T06:22:13.260Z,0
2018-11-06T06:23:27.073Z,0
2018-11-06T06:24:40.436Z,0
2018-11-06T06:25:54.476Z,0
2018-11-06T06:27:22.981Z,0
2018-11-06T06:28:37.929Z,0
2018-11-06T06:29:52.620Z,0
2018-11-06T06:31:07.122Z,5
2018-11-06T06:32:21.163Z,5
2018-11-06T06:33:35.686Z,5
2018-11-06T06:34:49.952Z,5
2018-11-06T06:36:04.905Z,5
2018-11-06T06:37:18.512Z,5
2018-11-06T06:38:32.998Z,5
2018-11-06T06:39:46.820Z,5
2018-11-06T06:41:01.867Z,5
2018-11-06T06:42:16.482Z,10
2018-11-06T06:43:30.591Z,10
2018-11-06T06:44:44.863Z,10
2018-11-06T06:45:58.436Z,10
2018-11-06T06:47:12.515Z,10
2018-11-06T06:48:26.848Z,10
2018-11-06T06:49:40.212Z,10
2018-11-06T06:50:53.662Z,15
2018-11-06T06:52:07.498Z,15
2018-11-06T06:53:21.286Z,15
2018-11-06T06:54:36.328Z,15
2018-11-06T06:55:50.671Z,15
2018-11-06T06:57:04.978Z,20
2018-11-06T06:58:19.241Z,20
2018-11-06T06:59:33.066Z,20
2018-11-06T07:00:47.820Z,20
2018-11-06T07:02:01.198Z,20
2018-11-06T07:03:15.255Z,25
2018-11-06T07:04:29.539Z,20
2018-11-06T07:05:43.569Z,25
2018-11-06T07:06:57.904Z,25
2018-11-06T07:08:12.351Z,25
2018-11-06T07:10:13.468Z,30
2018-11-06T07:11:27.746Z,30
2018-11-06T07:12:42.725Z,30
2018-11-06T07:13:56.738Z,30
2018-11-06T07:15:10.322Z,30
2018-11-06T07:16:24.403Z,35
2018-11-06T07:17:38.438Z,35
2018-11-06T07:18:53.641Z,35
2018-11-06T07:20:21.686Z,40
2018-11-06T07:21:35.383Z,40
2018-11-06T07:22:49.842Z,40
2018-11-06T07:24:03.771Z,45
2018-11-06T07:25:17.626Z,45
2018-11-06T07:26:46.345Z,45
2018-11-06T07:28:00.403Z,45
2018-11-06T07:29:13.737Z,50
2018-11-06T07:30:28.163Z,50
2018-11-06T07:31:41.948Z,50
2018-11-06T07:32:56.222Z,50
2018-11-06T07:34:10.162Z,50
2018-11-06T07:35:24.870Z,50
2018-11-06T07:36:39.103Z,50
2018-11-06T07:37:53.375Z,50
2018-11-06T07:39:22.325Z,50
2018-11-06T07:40:36.187Z,50
2018-11-06T07:42:05.099Z,50
2018-11-06T07:43:19.442Z,50
2018-11-06T07:44:32.536Z,50
2018-11-06T07:45:46.926Z,50
2018-11-06T07:48:29.846Z,55
2018-11-06T07:50:00.917Z,55
2018-11-06T07:51:30.340Z,55
2018-11-06T07:52:44.442Z,55
2018-11-06T07:53:58.015Z,55
2018-11-06T07:55:12.143Z,55
2018-11-06T07:56:26.406Z,60
2018-11-06T07:57:39.879Z,60
2018-11-06T07:58:54.460Z,65
2018-11-06T08:00:08.423Z,65
2018-11-06T08:01:22.297Z,65
2018-11-06T08:02:36.825Z,65
2018-11-06T08:03:50.618Z,65
2018-11-06T08:05:04.159Z,65
2018-11-06T08:06:18.480Z,65
2018-11-06T08:07:32.553Z,65
2018-11-06T08:08:46.823Z,60
2018-11-06T08:10:15.762Z,60
2018-11-06T08:11:29.866Z,60
2018-11-06T08:12:43.963Z,60
2018-11-06T08:13:57.760Z,60
2018-11-06T08:15:11.758Z,60
2018-11-06T08:16:25.836Z,60
2018-11-06T08:17:39.911Z,60
2018-11-06T08:18:54.039Z,65
2018-11-06T08:20:08.603Z,65
2018-11-06T08:21:22.717Z,65
2018-11-06T08:22:36.419Z,65
2018-11-06T08:23:50.755Z,65
2018-11-06T08:25:04.563Z,65
2018-11-06T08:26:18.396Z,70
2018-11-06T08:27:33.018Z,70
2018-11-06T08:28:47.456Z,70
2018-11-06T08:30:01.842Z,75
2018-11-06T08:31:16.331Z,75
2018-11-06T08:32:32.289Z,80
2018-11-06T08:33:46.848Z,80
2018-11-06T08:35:00.918Z,80
2018-11-06T08:36:14.987Z,85
2018-11-06T08:37:29.343Z,85
2018-11-06T08:38:43.384Z,85
2018-11-06T08:39:57.565Z,85
2018-11-06T08:41:11.143Z,85
2018-11-06T08:42:25.447Z,85
2018-11-06T08:43:39.948Z,85
2018-11-06T08:44:54.026Z,85
2018-11-06T08:46:07.848Z,80
2018-11-06T08:47:21.660Z,80
2018-11-06T08:48:35.445Z,80
2018-11-06T08:49:49.000Z,85
2018-11-06T08:51:03.536Z,80
2018-11-06T08:52:17.125Z,80
2018-11-06T08:53:30.982Z,80
2018-11-06T08:54:45.448Z,85
2018-11-06T08:55:59.404Z,85
2018-11-06T08:57:13.352Z,85
2018-11-06T08:58:27.711Z,85
2018-11-06T08:59:41.738Z,85
2018-11-06T09:00:56.013Z,85
2018-11-06T09:02:10.418Z,90
2018-11-06T09:03:24.040Z,85
2018-11-06T09:04:37.219Z,90
2018-11-06T09:05:51.864Z,90
2018-11-06T09:07:06.188Z,90
2018-11-06T09:08:20.093Z,90
2018-11-06T09:09:34.137Z,90
2018-11-06T09:10:47.967Z,90
2018-11-06T09:12:02.521Z,90
2018-11-06T09:13:16.862Z,90
2018-11-06T09:14:30.715Z,90
2018-11-06T09:15:44.343Z,90
2018-11-06T09:16:59.061Z,90
2018-11-06T09:18:13.190Z,90
2018-11-06T09:19:41.786Z,85
2018-11-06T09:20:56.309Z,90
2018-11-06T09:22:09.892Z,90
2018-11-06T09:23:23.886Z,85
2018-11-06T09:24:37.684Z,85
2018-11-06T09:25:51.536Z,85
2018-11-06T09:27:05.121Z,85
2018-11-06T09:28:37.160Z,80
2018-11-06T09:29:50.963Z,80
2018-11-06T09:31:05.759Z,85
2018-11-06T09:32:20.013Z,85
2018-11-06T09:33:33.859Z,85
2018-11-06T09:34:47.542Z,85
2018-11-06T09:36:01.619Z,85
2018-11-06T09:37:15.746Z,85
2018-11-06T09:38:44.765Z,85
2018-11-06T09:39:58.355Z,85
2018-11-06T09:41:12.419Z,90
2018-11-06T09:42:26.781Z,90
2018-11-06T09:43:40.161Z,95
2018-11-06T09:44:54.059Z,95
2018-11-06T09:46:08.046Z,95
2018-11-06T09:47:22.090Z,100
2018-11-06T09:48:41.652Z,100
2018-11-06T09:49:55.446Z,100
2018-11-06T09:51:09.735Z,100
2018-11-06T09:52:23.766Z,100
2018-11-06T09:53:37.341Z,100
2018-11-06T09:54:50.664Z,105
2018-11-06T09:56:04.690Z,105
2018-11-06T09:57:18.929Z,105
2018-11-06T09:58:40.614Z,110
2018-11-06T09:59:55.079Z,110
2018-11-06T10:01:09.218Z,110
2018-11-06T10:02:22.812Z,110
2018-11-06T10:03:36.848Z,115
2018-11-06T10:04:51.325Z,115
2018-11-06T10:06:05.929Z,115
2018-11-06T10:08:50.768Z,115
2018-11-06T10:10:04.799Z,115
2018-11-06T10:11:18.391Z,120
2018-11-06T10:12:32.235Z,120
2018-11-06T10:13:46.466Z,120
2018-11-06T10:15:00.516Z,120
2018-11-06T10:16:13.846Z,120
2018-11-06T10:17:27.429Z,120
2018-11-06T10:18:41.732Z,120
2018-11-06T10:19:55.619Z,125
2018-11-06T10:21:09.519Z,125
2018-11-06T10:22:23.987Z,130
2018-11-06T10:23:38.297Z,130
2018-11-06T10:24:52.102Z,130
2018-11-06T10:26:05.917Z,130
2018-11-06T10:27:20.189Z,125
2018-11-06T10:28:33.793Z,125
2018-11-06T10:29:47.644Z,120
2018-11-06T10:31:02.352Z,120
2018-11-06T10:32:16.419Z,120
2018-11-06T10:33:30.249Z,120
2018-11-06T10:34:44.295Z,115
2018-11-06T10:35:58.320Z,115
2018-11-06T10:37:12.141Z,115
2018-11-06T10:38:26.394Z,115
2018-11-06T10:39:40.681Z,115
2018-11-06T10:40:54.725Z,115
2018-11-06T10:42:08.561Z,120
2018-11-06T10:43:22.341Z,120
2018-11-06T10:44:36.341Z,120
2018-11-06T10:45:50.318Z,120
2018-11-06T10:47:04.384Z,120
2018-11-06T10:48:18.212Z,120
2018-11-06T10:49:31.802Z,120
2018-11-06T10:50:45.835Z,120
2018-11-06T10:52:00.944Z,125
2018-11-06T10:53:14.769Z,125
2018-11-06T10:54:29.328Z,120
2018-11-06T10:55:42.505Z,125
2018-11-06T10:56:57.010Z,125
2018-11-06T10:58:10.957Z,125
2018-11-06T10:59:25.044Z,125
2018-11-06T11:00:39.343Z,125
2018-11-06T11:01:53.367Z,125
2018-11-06T11:03:06.908Z,120
2018-11-06T11:04:21.661Z,125
2018-11-06T11:05:35.826Z,125
2018-11-06T11:06:49.885Z,125
2018-11-06T11:08:04.166Z,125
2018-11-06T11:09:18.427Z,130
2018-11-06T11:10:32.712Z,130
2018-11-06T11:11:47.016Z,130
2018-11-06T11:13:01.166Z,130
2018-11-06T11:14:14.994Z,130
2018-11-06T11:15:29.262Z,135
2018-11-06T11:16:43.336Z,135
2018-11-06T11:17:56.893Z,135
2018-11-06T11:19:11.200Z,140
2018-11-06T11:20:25.659Z,135
2018-11-06T11:21:38.999Z,135
2018-11-06T11:22:53.125Z,130
2018-11-06T11:24:07.176Z,130
2018-11-06T11:25:21.313Z,125
2018-11-06T11:26:35.172Z,120
2018-11-06T11:27:49.869Z,115
2018-11-06T11:29:04.149Z,110
2018-11-06T11:30:17.475Z,110
2018-11-06T11:31:31.059Z,105
2018-11-06T11:32:44.898Z,105
2018-11-06T11:33:59.161Z,100
2018-11-06T11:35:13.474Z,100
2018-11-06T11:36:27.359Z,95
2018-11-06T11:37:47.171Z,95
2018-11-06T11:39:00.860Z,90
2018-11-06T11:40:30.154Z,90
2018-11-06T11:41:44.668Z,90
2018-11-06T11:42:58.239Z,90
2018-11-06T11:45:41.381Z,90
2018-11-06T11:46:55.451Z,90
2018-11-06T11:48:09.533Z,95
2018-11-06T11:49:23.791Z,95
2018-11-06T11:50:37.610Z,95
2018-11-06T11:51:51.643Z,100
2018-11-06T11:53:05.727Z,100
2018-11-06T11:54:19.744Z,100
2018-11-06T11:55:33.886Z,100
2018-11-06T11:56:47.708Z,100
2018-11-06T11:58:01.527Z,105
2018-11-06T11:59:15.788Z,105
2018-11-06T12:00:44.985Z,105
2018-11-06T12:01:58.158Z,105
2018-11-06T12:03:11.964Z,105
2018-11-06T12:05:55.210Z,110
2018-11-06T12:07:24.526Z,110
2018-11-06T12:08:38.489Z,110
2018-11-06T12:09:52.309Z,110
2018-11-06T12:11:06.854Z,110
2018-11-06T12:12:21.126Z,105
2018-11-06T12:13:50.090Z,105
2018-11-06T12:15:18.846Z,105
2018-11-06T12:16:33.382Z,105
2018-11-06T12:17:47.179Z,105
2018-11-06T12:19:00.679Z,105
2018-11-06T12:20:14.495Z,105
2018-11-06T12:21:28.542Z,105
2018-11-06T12:22:42.812Z,105
2018-11-06T12:23:56.616Z,105
2018-11-06T12:25:11.991Z,105
2018-11-06T12:26:26.939Z,105
2018-11-06T12:27:40.964Z,100
2018-11-06T12:28:55.551Z,100
2018-11-06T12:30:09.842Z,100
2018-11-06T12:31:23.464Z,100
2018-11-06T12:32:37.463Z,100
2018-11-06T12:33:51.040Z,100
2018-11-06T12:35:20.046Z,100
2018-11-06T12:36:33.999Z,95
2018-11-06T12:38:02.821Z,95
2018-11-06T12:39:16.643Z,95
2018-11-06T12:40:30.344Z,95
2018-11-06T12:41:44.677Z,95
2018-11-06T12:42:59.051Z,95
2018-11-06T12:44:13.479Z,90
2018-11-06T12:45:27.078Z,90
2018-11-06T12:46:57.185Z,90
2018-11-06T12:48:11.508Z,90
2018-11-06T12:49:25.802Z,90
2018-11-06T12:50:39.629Z,90
2018-11-06T12:51:53.565Z,90
2018-11-06T12:53:07.837Z,90
2018-11-06T12:54:21.947Z,90
2018-11-06T12:55:36.270Z,90
2018-11-06T12:56:55.438Z,90
2018-11-06T12:58:09.770Z,90
2018-11-06T12:59:24.041Z,90
2018-11-06T13:00:38.832Z,90
2018-11-06T13:01:52.896Z,90
2018-11-06T13:03:06.510Z,90
2018-11-06T13:04:20.336Z,90
2018-11-06T13:05:34.416Z,90
2018-11-06T13:06:48.766Z,85
2018-11-06T13:08:02.838Z,90
2018-11-06T13:09:16.439Z,85
2018-11-06T13:10:30.483Z,85
2018-11-06T13:11:45.065Z,85
2018-11-06T13:12:59.664Z,85
2018-11-06T13:14:13.725Z,85
2018-11-06T13:15:29.272Z,85
2018-11-06T13:16:43.452Z,85
2018-11-06T13:17:57.743Z,80
2018-11-06T13:19:11.776Z,80
2018-11-06T13:20:25.604Z,80
2018-11-06T13:21:39.426Z,80
2018-11-06T13:22:53.232Z,80
2018-11-06T13:24:07.265Z,80
2018-11-06T13:25:21.458Z,80
2018-11-06T13:26:36.831Z,80
2018-11-06T13:27:51.339Z,80
2018-11-06T13:29:05.088Z,80
2018-11-06T13:30:19.320Z,80
2018-11-06T13:31:33.942Z,80
2018-11-06T13:32:47.953Z,80
2018-11-06T13:34:01.990Z,80
2018-11-06T13:35:15.550Z,80
2018-11-06T13:36:29.622Z,80
2018-11-06T13:37:43.729Z,80
2018-11-06T13:38:57.986Z,80
2018-11-06T13:40:12.047Z,80
2018-11-06T13:41:26.312Z,80
2018-11-06T13:42:41.530Z,80
2018-11-06T13:43:57.218Z,80
2018-11-06T13:45:11.914Z,80
2018-11-06T13:46:26.682Z,75
2018-11-06T13:47:41.289Z,75
2018-11-06T13:48:55.622Z,75
2018-11-06T13:50:09.940Z,75
2018-11-06T13:51:24.576Z,75
2018-11-06T13:52:38.856Z,75
2018-11-06T13:53:53.147Z,75
2018-11-06T13:55:06.778Z,75
2018-11-06T13:56:21.134Z,75
2018-11-06T13:57:35.645Z,75
2018-11-06T13:58:49.599Z,75
2018-11-06T14:00:03.444Z,70
2018-11-06T14:01:17.513Z,70
2018-11-06T14:02:31.922Z,70
2018-11-06T14:03:45.962Z,70
2018-11-06T14:05:00.015Z,70
2018-11-06T14:06:13.929Z,70
2018-11-06T14:07:27.987Z,70
2018-11-06T14:08:42.543Z,70
2018-11-06T14:09:56.865Z,70
2018-11-06T14:11:10.204Z,70
2018-11-06T14:12:24.238Z,70
2018-11-06T14:13:38.078Z,70
2018-11-06T14:14:51.689Z,70
2018-11-06T14:16:05.948Z,70
2018-11-06T14:17:19.606Z,70
2018-11-06T14:18:33.327Z,70
2018-11-06T14:19:47.149Z,70
2018-11-06T14:21:02.101Z,70
2018-11-06T14:22:16.420Z,65
2018-11-06T14:23:30.563Z,65
2018-11-06T14:24:43.942Z,65
2018-11-06T14:25:58.211Z,65
2018-11-06T14:27:13.300Z,60
2018-11-06T14:28:27.198Z,60
2018-11-06T14:29:41.239Z,60
2018-11-06T14:30:55.089Z,60
2018-11-06T14:32:09.271Z,60
2018-11-06T14:33:23.354Z,55
2018-11-06T14:34:37.407Z,55
2018-11-06T14:35:51.344Z,55
2018-11-06T14:37:05.964Z,55
2018-11-06T14:38:19.790Z,55
2018-11-06T14:39:33.909Z,50
2018-11-06T14:40:47.737Z,50
2018-11-06T14:42:01.606Z,50
2018-11-06T14:43:15.477Z,50
2018-11-06T14:44:29.778Z,50
2018-11-06T14:45:45.948Z,45
2018-11-06T14:46:59.764Z,45
2018-11-06T14:48:14.792Z,45
2018-11-06T14:49:29.927Z,45
2018-11-06T14:50:43.781Z,40
2018-11-06T14:51:57.879Z,40
2018-11-06T14:53:11.694Z,40
2018-11-06T14:54:25.537Z,40
2018-11-06T14:55:39.188Z,35
2018-11-06T14:56:53.053Z,35
2018-11-06T14:58:07.386Z,35
2018-11-06T14:59:21.532Z,35
2018-11-06T15:00:35.476Z,35
2018-11-06T15:01:49.824Z,35
2018-11-06T15:03:04.111Z,30
2018-11-06T15:04:18.162Z,30
2018-11-06T15:05:35.469Z,30
2018-11-06T15:06:49.958Z,30
2018-11-06T15:08:04.503Z,30
2018-11-06T15:09:18.322Z,30
2018-11-06T15:10:32.177Z,25
2018-11-06T15:11:46.819Z,25
2018-11-06T15:13:01.582Z,25
2018-11-06T15:14:15.869Z,25
2018-11-06T15:15:45.112Z,25
2018-11-06T15:16:58.983Z,25
2018-11-06T15:18:13.106Z,20
2018-11-06T15:19:27.193Z,20
2018-11-06T15:20:41.335Z,20
2018-11-06T15:21:54.874Z,20
2018-11-06T15:23:08.904Z,15
2018-11-06T15:24:23.449Z,15
2018-11-06T15:25:37.554Z,15
2018-11-06T15:26:51.908Z,15
2018-11-06T15:28:05.717Z,15
2018-11-06T15:29:19.787Z,10
2018-11-06T15:30:34.097Z,10
2018-11-06T15:31:47.974Z,10
2018-11-06T15:33:01.759Z,10
2018-11-06T15:34:15.601Z,10
2018-11-06T15:35:29.424Z,10
2018-11-06T15:36:43.496Z,10
2018-11-06T15:37:57.881Z,5
2018-11-06T15:39:12.204Z,5
2018-11-06T15:40:26.504Z,5
2018-11-06T15:41:40.624Z,5
2018-11-06T15:42:55.303Z,5
2018-11-06T15:44:08.680Z,5
2018-11-06T15:45:22.517Z,5
2018-11-06T15:46:36.586Z,5
2018-11-06T15:47:50.165Z,5
2018-11-06T15:49:04.860Z,0
2018-11-06T15:50:18.539Z,0
2018-11-06T15:51:32.834Z,0
2018-11-06T15:52:46.858Z,0
2018-11-06T15:54:00.683Z,0
2018-11-06T15:55:14.720Z,0
2018-11-06T15:56:29.013Z,0
2018-11-06T15:57:43.061Z,0
2018-11-06T15:58:57.180Z,0
2018-11-06T16:00:11.244Z,0
2018-11-06T16:01:25.268Z,0
2018-11-06T16:02:38.604Z,0
2018-11-06T16:03:52.200Z,0
2018-11-06T16:05:06.464Z,0
2018-11-06T16:06:19.843Z,0
2018-11-06T16:07:33.414Z,0
2018-11-06T16:08:46.979Z,0
2018-11-06T16:10:01.504Z,0
2018-11-06T16:11:15.086Z,0
2018-11-06T16:12:29.342Z,0
2018-11-06T16:13:43.454Z,0
2018-11-06T16:15:12.227Z,0
2018-11-06T16:16:26.365Z,0
2018-11-06T16:17:40.393Z,0
2018-11-06T16:19:08.989Z,0
2018-11-06T16:20:22.631Z,0
2018-11-06T16:21:36.818Z,0
2018-11-06T16:22:51.080Z,0
2018-11-06T16:24:05.499Z,0
2018-11-06T16:25:20.044Z,0
2018-11-06T16:26:34.345Z,0
2018-11-06T16:27:48.058Z,0
2018-11-06T16:29:03.002Z,0
2018-11-06T16:30:16.883Z,0
2018-11-06T16:31:30.783Z,0
2018-11-06T16:32:45.166Z,0
2018-11-06T16:33:59.196Z,0
2018-11-06T16:35:13.021Z,0
2018-11-06T16:36:26.839Z,0
2018-11-06T16:37:40.901Z,0
2018-11-06T16:38:55.473Z,0
2018-11-06T16:40:09.524Z,0
2018-11-06T16:41:38.185Z,0
2018-11-06T16:42:52.025Z,0
2018-11-06T16:44:06.184Z,0
2018-11-06T16:45:20.797Z,0
2018-11-06T16:46:35.166Z,0
2018-11-06T16:47:49.030Z,0
2018-11-06T16:49:02.868Z,0
2018-11-06T16:50:16.945Z,0
2018-11-06T16:51:45.935Z,0
2018-11-06T16:52:59.756Z,0
2018-11-06T16:54:30.522Z,0
2018-11-06T16:55:44.839Z,0
2018-11-06T16:56:59.168Z,0
2018-11-06T16:58:13.207Z,0
2018-11-06T16:59:42.343Z,0
2018-11-06T17:00:58.049Z,0
2018-11-06T17:02:12.335Z,0
2018-11-06T17:03:26.606Z,0
2018-11-06T17:04:40.947Z,0
2018-11-06T17:05:54.776Z,0
2018-11-06T17:07:09.077Z,0
2018-11-06T17:08:23.108Z,0
2018-11-06T17:09:37.404Z,0
2018-11-06T17:10:51.385Z,0
2018-11-06T17:12:05.788Z,0
2018-11-06T17:13:20.107Z,0
2018-11-06T17:14:33.896Z,0
2018-11-06T17:15:47.738Z,0
2018-11-06T17:17:01.776Z,0
2018-11-06T17:18:15.744Z,0
2018-11-06T17:19:29.679Z,0
2018-11-06T17:20:43.811Z,0
2018-11-06T17:21:58.109Z,0
2018-11-06T17:23:12.441Z,0
2018-11-06T17:24:29.817Z,0
2018-11-06T17:25:44.517Z,0
2018-11-06T17:26:58.848Z,0
2018-11-06T17:28:12.920Z,0
2018-11-06T17:29:27.044Z,0
2018-11-06T17:30:40.633Z,0
2018-11-06T17:31:54.880Z,0
2018-11-06T17:33:09.583Z,0
2018-11-06T17:34:23.918Z,0
2018-11-06T17:35:37.776Z,0
2018-11-06T17:36:51.377Z,0
2018-11-06T17:38:05.430Z,0
2018-11-06T17:39:19.559Z,0
2018-11-06T17:40:33.473Z,0
2018-11-06T17:41:46.918Z,0
2018-11-06T17:43:01.137Z,0
2018-11-06T17:44:15.300Z,0
2018-11-06T17:45:30.353Z,0
2018-11-06T17:46:44.464Z,0
2018-11-06T17:47:58.299Z,0
2018-11-06T17:49:11.751Z,0
2018-11-06T17:50:26.159Z,0
2018-11-06T17:51:40.936Z,0
2018-11-06T17:52:54.880Z,0
2018-11-06T17:54:13.800Z,0
2018-11-06T17:55:28.452Z,0
2018-11-06T17:56:42.378Z,0
2018-11-06T17:57:56.980Z,0
2018-11-06T17:59:11.014Z,0
2018-11-06T18:00:25.095Z,0
2018-11-06T18:01:39.062Z,0
2018-11-06T18:02:52.665Z,0
2018-11-06T18:04:10.085Z,0
2018-11-06T18:05:23.997Z,0
2018-11-06T18:06:38.081Z,0
2018-11-06T18:08:06.615Z,0
2018-11-06T18:09:20.958Z,0
2018-11-06T18:10:35.866Z,0
2018-11-06T18:11:50.427Z,0
2018-11-06T18:13:04.758Z,0
2018-11-06T18:14:18.415Z,0
2018-11-06T18:15:33.065Z,0
2018-11-06T18:16:46.908Z,0
2018-11-06T18:18:02.345Z,0
2018-11-06T18:19:16.231Z,0